Milagro, New Mexico
Current Conditions -  °F | °C
As of 6:53 AM on Saturday 25 Oct 2014 (Local Time) from KCQC Reporting Station
Clear Clear  
Wind Chill: 39°   Ceiling: Unl
Heat Index: 45°   Visibility: 10mi
Dew Point: 26°   Wind: 14mph
Humidity: 48%   Direction: 310°NW
Pressure: 30.33"   Gusts: NA
Location:  34.5735°N, 105.476°W
Report Text: KCQC 251253Z AUTO 31012KT 10SM CLR 07/M03 A3033 RMK AO2 SLP208 T00721033
Loading
Personal Weather Stations






























Interactive Weather Map
Tropical Storm Tracking
New forecast layout! Learn more

10-Day Weather Forecast

Advertisements
Track Severe Weather on mobile